sensor_id;sensor_type;location;lat;lon;timestamp;P1;durP1;ratioP1;P2;durP2;ratioP2
4166;SDS011;2097;51.104;7.150;2022-08-19T00:01:55;62.17;;;4.60;;
4166;SDS011;2097;51.104;7.150;2022-08-19T00:04:24;62.73;;;5.30;;
4166;SDS011;2097;51.104;7.150;2022-08-19T00:06:53;62.67;;;5.47;;
4166;SDS011;2097;51.104;7.150;2022-08-19T00:09:20;62.73;;;5.30;;
4166;SDS011;2097;51.104;7.150;2022-08-19T00:11:48;62.60;;;5.13;;
4166;SDS011;2097;51.104;7.150;2022-08-19T00:14:17;62.87;;;5.70;;
4166;SDS011;2097;51.104;7.150;2022-08-19T00:16:46;63.07;;;5.40;;
4166;SDS011;2097;51.104;7.150;2022-08-19T00:19:13;62.97;;;5.63;;
4166;SDS011;2097;51.104;7.150;2022-08-19T00:21:41;63.17;;;5.70;;
4166;SDS011;2097;51.104;7.150;2022-08-19T00:24:09;62.80;;;5.30;;
4166;SDS011;2097;51.104;7.150;2022-08-19T00:26:37;62.37;;;4.60;;
4166;SDS011;2097;51.104;7.150;2022-08-19T00:29:06;62.27;;;4.90;;
4166;SDS011;2097;51.104;7.150;2022-08-19T00:31:36;62.67;;;4.97;;
4166;SDS011;2097;51.104;7.150;2022-08-19T00:34:03;62.33;;;4.67;;
4166;SDS011;2097;51.104;7.150;2022-08-19T00:36:30;62.57;;;4.77;;
4166;SDS011;2097;51.104;7.150;2022-08-19T00:38:58;61.80;;;4.00;;
4166;SDS011;2097;51.104;7.150;2022-08-19T00:41:25;62.20;;;4.93;;
4166;SDS011;2097;51.104;7.150;2022-08-19T00:43:59;62.20;;;4.20;;
4166;SDS011;2097;51.104;7.150;2022-08-19T00:46:27;61.90;;;3.90;;
4166;SDS011;2097;51.104;7.150;2022-08-19T00:48:56;61.77;;;3.93;;
4166;SDS011;2097;51.104;7.150;2022-08-19T00:51:24;61.87;;;4.13;;
4166;SDS011;2097;51.104;7.150;2022-08-19T00:53:52;61.80;;;3.93;;
4166;SDS011;2097;51.104;7.150;2022-08-19T00:56:19;61.27;;;3.77;;
4166;SDS011;2097;51.104;7.150;2022-08-19T00:58:45;61.00;;;3.87;;
4166;SDS011;2097;51.104;7.150;2022-08-19T01:01:12;62.27;;;3.77;;
4166;SDS011;2097;51.104;7.150;2022-08-19T01:03:40;62.37;;;4.20;;
4166;SDS011;2097;51.104;7.150;2022-08-19T01:06:08;61.73;;;3.93;;
4166;SDS011;2097;51.104;7.150;2022-08-19T01:08:35;62.07;;;4.10;;
4166;SDS011;2097;51.104;7.150;2022-08-19T01:11:02;62.00;;;4.13;;
4166;SDS011;2097;51.104;7.150;2022-08-19T01:13:30;62.70;;;4.70;;
4166;SDS011;2097;51.104;7.150;2022-08-19T01:16:01;62.00;;;3.77;;
4166;SDS011;2097;51.104;7.150;2022-08-19T01:18:31;62.33;;;4.30;;
4166;SDS011;2097;51.104;7.150;2022-08-19T01:21:02;62.30;;;3.97;;
4166;SDS011;2097;51.104;7.150;2022-08-19T01:23:35;62.33;;;3.90;;
4166;SDS011;2097;51.104;7.150;2022-08-19T01:26:11;62.20;;;3.97;;
4166;SDS011;2097;51.104;7.150;2022-08-19T01:28:40;62.13;;;4.03;;
4166;SDS011;2097;51.104;7.150;2022-08-19T01:31:09;62.00;;;3.90;;
4166;SDS011;2097;51.104;7.150;2022-08-19T01:33:38;62.00;;;3.93;;
4166;SDS011;2097;51.104;7.150;2022-08-19T01:36:06;61.63;;;4.07;;
4166;SDS011;2097;51.104;7.150;2022-08-19T01:38:40;61.97;;;4.30;;
4166;SDS011;2097;51.104;7.150;2022-08-19T01:41:10;62.13;;;4.20;;
4166;SDS011;2097;51.104;7.150;2022-08-19T01:43:37;62.37;;;4.57;;
4166;SDS011;2097;51.104;7.150;2022-08-19T01:46:04;62.17;;;4.17;;
4166;SDS011;2097;51.104;7.150;2022-08-19T01:48:35;62.10;;;4.30;;
4166;SDS011;2097;51.104;7.150;2022-08-19T01:51:04;62.10;;;4.33;;
4166;SDS011;2097;51.104;7.150;2022-08-19T01:53:31;61.77;;;3.77;;
4166;SDS011;2097;51.104;7.150;2022-08-19T01:56:00;61.73;;;3.97;;
4166;SDS011;2097;51.104;7.150;2022-08-19T01:58:29;61.90;;;3.90;;
4166;SDS011;2097;51.104;7.150;2022-08-19T02:00:58;61.70;;;3.60;;
4166;SDS011;2097;51.104;7.150;2022-08-19T02:03:25;62.50;;;4.83;;
4166;SDS011;2097;51.104;7.150;2022-08-19T02:05:55;61.70;;;3.97;;
4166;SDS011;2097;51.104;7.150;2022-08-19T02:08:24;62.13;;;3.97;;
4166;SDS011;2097;51.104;7.150;2022-08-19T02:10:51;62.07;;;4.00;;
4166;SDS011;2097;51.104;7.150;2022-08-19T02:13:19;61.90;;;3.93;;
4166;SDS011;2097;51.104;7.150;2022-08-19T02:15:46;61.77;;;4.10;;
4166;SDS011;2097;51.104;7.150;2022-08-19T02:18:13;61.93;;;3.90;;
4166;SDS011;2097;51.104;7.150;2022-08-19T02:20:41;61.30;;;4.03;;
4166;SDS011;2097;51.104;7.150;2022-08-19T02:23:09;61.70;;;3.83;;
4166;SDS011;2097;51.104;7.150;2022-08-19T02:25:38;62.23;;;4.53;;
4166;SDS011;2097;51.104;7.150;2022-08-19T02:28:05;61.70;;;3.90;;
4166;SDS011;2097;51.104;7.150;2022-08-19T02:30:33;61.57;;;4.00;;
4166;SDS011;2097;51.104;7.150;2022-08-19T02:33:00;61.80;;;3.80;;
4166;SDS011;2097;51.104;7.150;2022-08-19T02:35:26;64.40;;;4.20;;
4166;SDS011;2097;51.104;7.150;2022-08-19T02:37:53;61.80;;;4.20;;
4166;SDS011;2097;51.104;7.150;2022-08-19T02:40:37;61.87;;;4.00;;
4166;SDS011;2097;51.104;7.150;2022-08-19T02:43:04;61.80;;;4.53;;
4166;SDS011;2097;51.104;7.150;2022-08-19T02:45:34;61.90;;;4.27;;
4166;SDS011;2097;51.104;7.150;2022-08-19T02:48:02;62.17;;;4.43;;
4166;SDS011;2097;51.104;7.150;2022-08-19T02:50:30;62.10;;;4.50;;
4166;SDS011;2097;51.104;7.150;2022-08-19T02:52:57;62.17;;;4.53;;
4166;SDS011;2097;51.104;7.150;2022-08-19T02:55:24;62.07;;;4.77;;
4166;SDS011;2097;51.104;7.150;2022-08-19T02:57:51;61.80;;;4.00;;
4166;SDS011;2097;51.104;7.150;2022-08-19T03:00:17;61.97;;;4.67;;
4166;SDS011;2097;51.104;7.150;2022-08-19T03:02:45;62.20;;;4.67;;
4166;SDS011;2097;51.104;7.150;2022-08-19T03:05:13;62.17;;;4.37;;
4166;SDS011;2097;51.104;7.150;2022-08-19T03:07:40;62.27;;;4.70;;
4166;SDS011;2097;51.104;7.150;2022-08-19T03:10:07;62.27;;;4.90;;
4166;SDS011;2097;51.104;7.150;2022-08-19T03:12:35;62.00;;;4.77;;
4166;SDS011;2097;51.104;7.150;2022-08-19T03:15:03;61.80;;;4.13;;
4166;SDS011;2097;51.104;7.150;2022-08-19T03:17:32;61.87;;;3.90;;
4166;SDS011;2097;51.104;7.150;2022-08-19T03:20:00;61.87;;;3.87;;
4166;SDS011;2097;51.104;7.150;2022-08-19T03:22:27;61.80;;;4.10;;
4166;SDS011;2097;51.104;7.150;2022-08-19T03:24:55;61.90;;;4.20;;
4166;SDS011;2097;51.104;7.150;2022-08-19T03:27:22;61.90;;;4.00;;
4166;SDS011;2097;51.104;7.150;2022-08-19T03:29:48;62.07;;;4.40;;
4166;SDS011;2097;51.104;7.150;2022-08-19T03:32:16;61.97;;;4.23;;
4166;SDS011;2097;51.104;7.150;2022-08-19T03:34:42;62.17;;;4.90;;
4166;SDS011;2097;51.104;7.150;2022-08-19T03:37:11;62.47;;;3.90;;
4166;SDS011;2097;51.104;7.150;2022-08-19T03:39:39;61.87;;;4.23;;
4166;SDS011;2097;51.104;7.150;2022-08-19T03:42:07;62.27;;;4.60;;
4166;SDS011;2097;51.104;7.150;2022-08-19T03:44:34;62.33;;;5.10;;
4166;SDS011;2097;51.104;7.150;2022-08-19T03:47:03;61.97;;;4.13;;
4166;SDS011;2097;51.104;7.150;2022-08-19T03:49:31;62.13;;;4.40;;
4166;SDS011;2097;51.104;7.150;2022-08-19T03:52:00;62.20;;;4.67;;
4166;SDS011;2097;51.104;7.150;2022-08-19T03:54:31;61.90;;;4.03;;
4166;SDS011;2097;51.104;7.150;2022-08-19T03:56:58;61.90;;;4.07;;
4166;SDS011;2097;51.104;7.150;2022-08-19T03:59:27;62.37;;;4.07;;
4166;SDS011;2097;51.104;7.150;2022-08-19T04:01:56;62.37;;;4.67;;
4166;SDS011;2097;51.104;7.150;2022-08-19T04:04:24;61.77;;;3.80;;
4166;SDS011;2097;51.104;7.150;2022-08-19T04:06:52;61.90;;;4.10;;
4166;SDS011;2097;51.104;7.150;2022-08-19T04:09:19;62.07;;;4.30;;
4166;SDS011;2097;51.104;7.150;2022-08-19T04:11:48;62.00;;;4.10;;
4166;SDS011;2097;51.104;7.150;2022-08-19T04:14:20;62.27;;;4.67;;
4166;SDS011;2097;51.104;7.150;2022-08-19T04:16:49;61.83;;;4.03;;
4166;SDS011;2097;51.104;7.150;2022-08-19T04:19:16;62.17;;;4.20;;
4166;SDS011;2097;51.104;7.150;2022-08-19T04:21:44;62.00;;;4.13;;
4166;SDS011;2097;51.104;7.150;2022-08-19T04:24:14;61.87;;;4.20;;
4166;SDS011;2097;51.104;7.150;2022-08-19T04:26:41;61.97;;;4.40;;
4166;SDS011;2097;51.104;7.150;2022-08-19T04:29:11;62.00;;;4.17;;
4166;SDS011;2097;51.104;7.150;2022-08-19T04:31:40;62.07;;;4.27;;
4166;SDS011;2097;51.104;7.150;2022-08-19T04:34:09;61.87;;;4.17;;
4166;SDS011;2097;51.104;7.150;2022-08-19T04:36:38;63.30;;;4.20;;
4166;SDS011;2097;51.104;7.150;2022-08-19T04:39:08;62.53;;;4.73;;
4166;SDS011;2097;51.104;7.150;2022-08-19T04:41:37;62.20;;;4.63;;
4166;SDS011;2097;51.104;7.150;2022-08-19T04:44:22;62.00;;;3.83;;
4166;SDS011;2097;51.104;7.150;2022-08-19T04:46:50;61.93;;;4.33;;
4166;SDS011;2097;51.104;7.150;2022-08-19T04:49:18;62.00;;;4.20;;
4166;SDS011;2097;51.104;7.150;2022-08-19T04:51:47;62.30;;;4.03;;
4166;SDS011;2097;51.104;7.150;2022-08-19T04:54:15;62.30;;;4.33;;
4166;SDS011;2097;51.104;7.150;2022-08-19T04:56:43;61.70;;;4.10;;
4166;SDS011;2097;51.104;7.150;2022-08-19T04:59:11;61.80;;;4.27;;
4166;SDS011;2097;51.104;7.150;2022-08-19T05:01:42;62.40;;;4.47;;
4166;SDS011;2097;51.104;7.150;2022-08-19T05:04:13;62.17;;;4.63;;
4166;SDS011;2097;51.104;7.150;2022-08-19T05:06:40;62.47;;;5.17;;
4166;SDS011;2097;51.104;7.150;2022-08-19T05:09:08;61.80;;;5.03;;
4166;SDS011;2097;51.104;7.150;2022-08-19T05:11:36;62.20;;;4.80;;
4166;SDS011;2097;51.104;7.150;2022-08-19T05:14:04;62.27;;;4.53;;
4166;SDS011;2097;51.104;7.150;2022-08-19T05:16:31;62.47;;;5.27;;
4166;SDS011;2097;51.104;7.150;2022-08-19T05:18:59;62.30;;;5.57;;
4166;SDS011;2097;51.104;7.150;2022-08-19T05:21:43;62.77;;;4.80;;
4166;SDS011;2097;51.104;7.150;2022-08-19T05:24:28;62.27;;;4.53;;
4166;SDS011;2097;51.104;7.150;2022-08-19T05:26:57;63.23;;;6.10;;
4166;SDS011;2097;51.104;7.150;2022-08-19T05:29:24;62.87;;;5.10;;
4166;SDS011;2097;51.104;7.150;2022-08-19T05:31:53;62.50;;;5.10;;
4166;SDS011;2097;51.104;7.150;2022-08-19T05:34:23;62.57;;;4.67;;
4166;SDS011;2097;51.104;7.150;2022-08-19T05:36:53;62.30;;;4.70;;
4166;SDS011;2097;51.104;7.150;2022-08-19T05:39:22;62.20;;;4.50;;
4166;SDS011;2097;51.104;7.150;2022-08-19T05:41:51;62.37;;;4.73;;
4166;SDS011;2097;51.104;7.150;2022-08-19T05:44:22;62.17;;;5.00;;
4166;SDS011;2097;51.104;7.150;2022-08-19T05:46:49;62.30;;;5.00;;
4166;SDS011;2097;51.104;7.150;2022-08-19T05:49:18;62.10;;;4.97;;
4166;SDS011;2097;51.104;7.150;2022-08-19T05:51:47;63.33;;;5.30;;
4166;SDS011;2097;51.104;7.150;2022-08-19T05:54:15;62.73;;;5.33;;
4166;SDS011;2097;51.104;7.150;2022-08-19T05:56:41;63.23;;;6.20;;
4166;SDS011;2097;51.104;7.150;2022-08-19T05:59:10;62.43;;;5.00;;
4166;SDS011;2097;51.104;7.150;2022-08-19T06:01:37;62.57;;;5.40;;
4166;SDS011;2097;51.104;7.150;2022-08-19T06:04:05;62.70;;;5.40;;
4166;SDS011;2097;51.104;7.150;2022-08-19T06:06:32;63.13;;;5.60;;
4166;SDS011;2097;51.104;7.150;2022-08-19T06:09:01;62.80;;;5.80;;
4166;SDS011;2097;51.104;7.150;2022-08-19T06:11:32;62.87;;;5.63;;
4166;SDS011;2097;51.104;7.150;2022-08-19T06:14:01;63.40;;;6.77;;
4166;SDS011;2097;51.104;7.150;2022-08-19T06:16:30;62.73;;;6.00;;
4166;SDS011;2097;51.104;7.150;2022-08-19T06:19:00;62.90;;;5.73;;
4166;SDS011;2097;51.104;7.150;2022-08-19T06:21:29;63.07;;;5.80;;
4166;SDS011;2097;51.104;7.150;2022-08-19T06:23:56;63.27;;;6.30;;
4166;SDS011;2097;51.104;7.150;2022-08-19T06:26:25;62.97;;;6.20;;
4166;SDS011;2097;51.104;7.150;2022-08-19T06:28:53;63.00;;;5.97;;
4166;SDS011;2097;51.104;7.150;2022-08-19T06:31:21;62.60;;;5.43;;
4166;SDS011;2097;51.104;7.150;2022-08-19T06:33:51;62.07;;;6.27;;
4166;SDS011;2097;51.104;7.150;2022-08-19T06:36:19;63.37;;;6.80;;
4166;SDS011;2097;51.104;7.150;2022-08-19T06:38:52;62.77;;;5.77;;
4166;SDS011;2097;51.104;7.150;2022-08-19T06:41:19;62.97;;;6.10;;
4166;SDS011;2097;51.104;7.150;2022-08-19T06:43:47;63.10;;;6.40;;
4166;SDS011;2097;51.104;7.150;2022-08-19T06:46:14;62.67;;;5.50;;
4166;SDS011;2097;51.104;7.150;2022-08-19T06:48:43;62.97;;;5.43;;
4166;SDS011;2097;51.104;7.150;2022-08-19T06:51:10;62.30;;;5.47;;
4166;SDS011;2097;51.104;7.150;2022-08-19T06:53:40;62.67;;;5.13;;
4166;SDS011;2097;51.104;7.150;2022-08-19T06:56:12;63.47;;;5.20;;
4166;SDS011;2097;51.104;7.150;2022-08-19T06:58:40;63.07;;;5.50;;
4166;SDS011;2097;51.104;7.150;2022-08-19T07:01:08;62.30;;;5.27;;
4166;SDS011;2097;51.104;7.150;2022-08-19T07:03:36;63.00;;;6.13;;
4166;SDS011;2097;51.104;7.150;2022-08-19T07:06:05;63.47;;;6.00;;
4166;SDS011;2097;51.104;7.150;2022-08-19T07:08:34;64.07;;;7.23;;
4166;SDS011;2097;51.104;7.150;2022-08-19T07:11:02;64.50;;;7.90;;
4166;SDS011;2097;51.104;7.150;2022-08-19T07:13:32;63.83;;;8.47;;
4166;SDS011;2097;51.104;7.150;2022-08-19T07:16:02;64.90;;;9.70;;
4166;SDS011;2097;51.104;7.150;2022-08-19T07:18:31;64.50;;;9.43;;
4166;SDS011;2097;51.104;7.150;2022-08-19T07:21:02;66.27;;;11.90;;
4166;SDS011;2097;51.104;7.150;2022-08-19T07:23:29;64.27;;;10.47;;
4166;SDS011;2097;51.104;7.150;2022-08-19T07:25:56;64.43;;;8.77;;
4166;SDS011;2097;51.104;7.150;2022-08-19T07:28:23;64.30;;;8.83;;
4166;SDS011;2097;51.104;7.150;2022-08-19T07:30:50;62.60;;;6.93;;
4166;SDS011;2097;51.104;7.150;2022-08-19T07:33:17;62.53;;;5.87;;
4166;SDS011;2097;51.104;7.150;2022-08-19T07:35:46;63.37;;;6.30;;
4166;SDS011;2097;51.104;7.150;2022-08-19T07:38:13;63.30;;;6.40;;
4166;SDS011;2097;51.104;7.150;2022-08-19T07:40:41;64.00;;;7.30;;
4166;SDS011;2097;51.104;7.150;2022-08-19T07:43:08;64.07;;;7.67;;
4166;SDS011;2097;51.104;7.150;2022-08-19T07:45:35;64.00;;;8.20;;
4166;SDS011;2097;51.104;7.150;2022-08-19T07:48:02;63.10;;;6.30;;
4166;SDS011;2097;51.104;7.150;2022-08-19T07:50:29;63.33;;;6.13;;
4166;SDS011;2097;51.104;7.150;2022-08-19T07:52:58;63.00;;;6.00;;
4166;SDS011;2097;51.104;7.150;2022-08-19T07:55:25;62.87;;;5.53;;
4166;SDS011;2097;51.104;7.150;2022-08-19T07:57:52;63.00;;;6.83;;
4166;SDS011;2097;51.104;7.150;2022-08-19T08:00:20;62.77;;;5.33;;
4166;SDS011;2097;51.104;7.150;2022-08-19T08:02:46;63.10;;;5.93;;
4166;SDS011;2097;51.104;7.150;2022-08-19T08:05:13;62.70;;;5.73;;
4166;SDS011;2097;51.104;7.150;2022-08-19T08:07:59;62.70;;;5.50;;
4166;SDS011;2097;51.104;7.150;2022-08-19T08:10:43;62.07;;;5.90;;
4166;SDS011;2097;51.104;7.150;2022-08-19T08:13:10;63.10;;;6.90;;
4166;SDS011;2097;51.104;7.150;2022-08-19T08:15:37;63.50;;;7.00;;
4166;SDS011;2097;51.104;7.150;2022-08-19T08:18:04;63.77;;;7.03;;
4166;SDS011;2097;51.104;7.150;2022-08-19T08:20:31;63.53;;;6.67;;
4166;SDS011;2097;51.104;7.150;2022-08-19T08:22:59;63.10;;;6.60;;
4166;SDS011;2097;51.104;7.150;2022-08-19T08:25:44;63.50;;;6.90;;
4166;SDS011;2097;51.104;7.150;2022-08-19T08:28:11;62.87;;;5.77;;
4166;SDS011;2097;51.104;7.150;2022-08-19T08:30:38;63.20;;;6.00;;
4166;SDS011;2097;51.104;7.150;2022-08-19T08:33:07;63.47;;;6.10;;
4166;SDS011;2097;51.104;7.150;2022-08-19T08:35:34;63.50;;;6.30;;
4166;SDS011;2097;51.104;7.150;2022-08-19T08:38:02;63.63;;;6.57;;
4166;SDS011;2097;51.104;7.150;2022-08-19T08:40:33;63.67;;;6.60;;
4166;SDS011;2097;51.104;7.150;2022-08-19T08:43:09;63.47;;;6.10;;
4166;SDS011;2097;51.104;7.150;2022-08-19T08:45:47;63.00;;;5.40;;
4166;SDS011;2097;51.104;7.150;2022-08-19T08:48:20;64.07;;;5.70;;
4166;SDS011;2097;51.104;7.150;2022-08-19T08:50:56;64.30;;;6.73;;
4166;SDS011;2097;51.104;7.150;2022-08-19T08:53:26;62.93;;;5.63;;
4166;SDS011;2097;51.104;7.150;2022-08-19T08:55:53;63.07;;;5.93;;
4166;SDS011;2097;51.104;7.150;2022-08-19T08:58:27;63.20;;;6.23;;
4166;SDS011;2097;51.104;7.150;2022-08-19T09:00:59;63.73;;;6.33;;
4166;SDS011;2097;51.104;7.150;2022-08-19T09:03:26;64.20;;;8.03;;
4166;SDS011;2097;51.104;7.150;2022-08-19T09:05:59;64.40;;;8.60;;
4166;SDS011;2097;51.104;7.150;2022-08-19T09:08:34;64.43;;;8.30;;
4166;SDS011;2097;51.104;7.150;2022-08-19T09:11:07;63.90;;;7.70;;
4166;SDS011;2097;51.104;7.150;2022-08-19T09:13:38;63.53;;;6.27;;
4166;SDS011;2097;51.104;7.150;2022-08-19T09:16:12;62.97;;;5.77;;
4166;SDS011;2097;51.104;7.150;2022-08-19T09:18:42;63.17;;;5.97;;
4166;SDS011;2097;51.104;7.150;2022-08-19T09:21:11;63.40;;;6.47;;
4166;SDS011;2097;51.104;7.150;2022-08-19T09:23:39;63.03;;;5.93;;
4166;SDS011;2097;51.104;7.150;2022-08-19T09:26:08;63.10;;;6.07;;
4166;SDS011;2097;51.104;7.150;2022-08-19T09:28:38;63.37;;;6.40;;
4166;SDS011;2097;51.104;7.150;2022-08-19T09:31:08;63.17;;;6.17;;
4166;SDS011;2097;51.104;7.150;2022-08-19T09:33:35;63.00;;;5.90;;
4166;SDS011;2097;51.104;7.150;2022-08-19T09:36:04;62.87;;;5.97;;
4166;SDS011;2097;51.104;7.150;2022-08-19T09:38:32;62.70;;;5.43;;
4166;SDS011;2097;51.104;7.150;2022-08-19T09:41:03;62.67;;;5.30;;
4166;SDS011;2097;51.104;7.150;2022-08-19T09:43:31;62.80;;;5.43;;
4166;SDS011;2097;51.104;7.150;2022-08-19T09:45:58;63.90;;;7.50;;
4166;SDS011;2097;51.104;7.150;2022-08-19T09:48:26;63.10;;;6.07;;
4166;SDS011;2097;51.104;7.150;2022-08-19T09:50:53;63.87;;;7.10;;
4166;SDS011;2097;51.104;7.150;2022-08-19T09:53:19;63.20;;;6.20;;
4166;SDS011;2097;51.104;7.150;2022-08-19T09:55:48;63.50;;;6.60;;
4166;SDS011;2097;51.104;7.150;2022-08-19T09:58:16;65.57;;;7.33;;
4166;SDS011;2097;51.104;7.150;2022-08-19T10:00:43;63.80;;;7.20;;
4166;SDS011;2097;51.104;7.150;2022-08-19T10:03:11;63.70;;;6.87;;
4166;SDS011;2097;51.104;7.150;2022-08-19T10:05:38;63.33;;;5.40;;
4166;SDS011;2097;51.104;7.150;2022-08-19T10:08:17;62.80;;;5.43;;
4166;SDS011;2097;51.104;7.150;2022-08-19T10:10:46;64.03;;;6.90;;
4166;SDS011;2097;51.104;7.150;2022-08-19T10:13:14;63.60;;;6.40;;
4166;SDS011;2097;51.104;7.150;2022-08-19T10:15:46;63.37;;;6.00;;
4166;SDS011;2097;51.104;7.150;2022-08-19T10:18:16;63.40;;;6.47;;
4166;SDS011;2097;51.104;7.150;2022-08-19T10:20:43;63.50;;;6.00;;
4166;SDS011;2097;51.104;7.150;2022-08-19T10:23:10;63.60;;;6.40;;
4166;SDS011;2097;51.104;7.150;2022-08-19T10:25:38;63.57;;;6.13;;
4166;SDS011;2097;51.104;7.150;2022-08-19T10:28:05;63.10;;;6.03;;
4166;SDS011;2097;51.104;7.150;2022-08-19T10:30:33;64.47;;;7.00;;
4166;SDS011;2097;51.104;7.150;2022-08-19T10:33:02;63.30;;;5.93;;
4166;SDS011;2097;51.104;7.150;2022-08-19T10:35:28;63.43;;;5.93;;
4166;SDS011;2097;51.104;7.150;2022-08-19T10:37:55;63.77;;;6.37;;
4166;SDS011;2097;51.104;7.150;2022-08-19T10:40:24;63.95;;;7.35;;
4166;SDS011;2097;51.104;7.150;2022-08-19T10:42:51;65.05;;;8.07;;
4166;SDS011;2097;51.104;7.150;2022-08-19T10:45:18;64.43;;;8.32;;
4166;SDS011;2097;51.104;7.150;2022-08-19T10:47:48;64.63;;;6.38;;
4166;SDS011;2097;51.104;7.150;2022-08-19T10:50:15;63.03;;;5.65;;
4166;SDS011;2097;51.104;7.150;2022-08-19T10:53:03;63.97;;;6.15;;
4166;SDS011;2097;51.104;7.150;2022-08-19T10:55:30;64.20;;;7.50;;
4166;SDS011;2097;51.104;7.150;2022-08-19T10:58:16;63.22;;;6.10;;
4166;SDS011;2097;51.104;7.150;2022-08-19T11:00:51;63.83;;;7.00;;
4166;SDS011;2097;51.104;7.150;2022-08-19T11:03:21;62.90;;;5.68;;
4166;SDS011;2097;51.104;7.150;2022-08-19T11:05:56;63.95;;;6.30;;
4166;SDS011;2097;51.104;7.150;2022-08-19T11:08:24;63.58;;;5.85;;
4166;SDS011;2097;51.104;7.150;2022-08-19T11:10:52;63.33;;;6.20;;
4166;SDS011;2097;51.104;7.150;2022-08-19T11:13:22;63.60;;;6.03;;
4166;SDS011;2097;51.104;7.150;2022-08-19T11:15:55;62.97;;;5.80;;
4166;SDS011;2097;51.104;7.150;2022-08-19T11:18:24;62.95;;;5.72;;
4166;SDS011;2097;51.104;7.150;2022-08-19T11:20:51;63.13;;;6.00;;
4166;SDS011;2097;51.104;7.150;2022-08-19T11:23:18;63.40;;;5.90;;
4166;SDS011;2097;51.104;7.150;2022-08-19T11:25:45;63.90;;;6.85;;
4166;SDS011;2097;51.104;7.150;2022-08-19T11:28:12;63.63;;;6.20;;
4166;SDS011;2097;51.104;7.150;2022-08-19T11:30:40;63.95;;;7.18;;
4166;SDS011;2097;51.104;7.150;2022-08-19T11:33:07;63.22;;;6.55;;
4166;SDS011;2097;51.104;7.150;2022-08-19T11:35:39;63.13;;;5.97;;
4166;SDS011;2097;51.104;7.150;2022-08-19T11:38:07;62.58;;;5.15;;
4166;SDS011;2097;51.104;7.150;2022-08-19T11:40:33;62.42;;;4.75;;
4166;SDS011;2097;51.104;7.150;2022-08-19T11:43:00;62.72;;;5.05;;
4166;SDS011;2097;51.104;7.150;2022-08-19T11:45:27;62.75;;;5.57;;
4166;SDS011;2097;51.104;7.150;2022-08-19T11:47:54;64.13;;;7.25;;
4166;SDS011;2097;51.104;7.150;2022-08-19T11:50:22;64.70;;;8.95;;
4166;SDS011;2097;51.104;7.150;2022-08-19T11:52:54;64.40;;;8.20;;
4166;SDS011;2097;51.104;7.150;2022-08-19T11:55:21;64.07;;;8.48;;
4166;SDS011;2097;51.104;7.150;2022-08-19T11:57:48;63.50;;;7.18;;
4166;SDS011;2097;51.104;7.150;2022-08-19T12:00:15;65.03;;;7.30;;
4166;SDS011;2097;51.104;7.150;2022-08-19T12:02:42;64.38;;;6.43;;
4166;SDS011;2097;51.104;7.150;2022-08-19T12:05:09;62.92;;;5.90;;
4166;SDS011;2097;51.104;7.150;2022-08-19T12:07:36;62.63;;;5.55;;
4166;SDS011;2097;51.104;7.150;2022-08-19T12:10:04;62.95;;;5.75;;
4166;SDS011;2097;51.104;7.150;2022-08-19T12:12:31;62.45;;;5.22;;
4166;SDS011;2097;51.104;7.150;2022-08-19T12:14:58;63.38;;;6.43;;
4166;SDS011;2097;51.104;7.150;2022-08-19T12:17:25;62.83;;;5.45;;
4166;SDS011;2097;51.104;7.150;2022-08-19T12:19:53;62.95;;;5.35;;
4166;SDS011;2097;51.104;7.150;2022-08-19T12:22:21;63.13;;;5.93;;
4166;SDS011;2097;51.104;7.150;2022-08-19T12:24:47;62.88;;;5.85;;
4166;SDS011;2097;51.104;7.150;2022-08-19T12:27:18;63.33;;;5.35;;
4166;SDS011;2097;51.104;7.150;2022-08-19T12:29:45;62.85;;;5.10;;
4166;SDS011;2097;51.104;7.150;2022-08-19T12:32:12;62.53;;;4.85;;
4166;SDS011;2097;51.104;7.150;2022-08-19T12:34:39;63.40;;;5.80;;
4166;SDS011;2097;51.104;7.150;2022-08-19T12:37:06;62.97;;;5.97;;
4166;SDS011;2097;51.104;7.150;2022-08-19T12:39:34;62.65;;;5.47;;
4166;SDS011;2097;51.104;7.150;2022-08-19T12:42:02;62.63;;;5.05;;
4166;SDS011;2097;51.104;7.150;2022-08-19T12:44:32;63.33;;;5.97;;
4166;SDS011;2097;51.104;7.150;2022-08-19T12:46:59;62.72;;;5.72;;
4166;SDS011;2097;51.104;7.150;2022-08-19T12:49:29;63.20;;;6.13;;
4166;SDS011;2097;51.104;7.150;2022-08-19T12:51:58;62.58;;;5.25;;
4166;SDS011;2097;51.104;7.150;2022-08-19T12:54:25;62.88;;;5.45;;
4166;SDS011;2097;51.104;7.150;2022-08-19T12:56:52;62.50;;;4.65;;
4166;SDS011;2097;51.104;7.150;2022-08-19T12:59:19;62.95;;;5.65;;
4166;SDS011;2097;51.104;7.150;2022-08-19T13:01:47;62.88;;;5.20;;
4166;SDS011;2097;51.104;7.150;2022-08-19T13:04:14;64.20;;;6.97;;
4166;SDS011;2097;51.104;7.150;2022-08-19T13:06:41;63.47;;;5.65;;
4166;SDS011;2097;51.104;7.150;2022-08-19T13:09:09;62.60;;;5.10;;
4166;SDS011;2097;51.104;7.150;2022-08-19T13:11:36;62.25;;;4.55;;
4166;SDS011;2097;51.104;7.150;2022-08-19T13:14:04;62.67;;;4.57;;
4166;SDS011;2097;51.104;7.150;2022-08-19T13:16:31;62.70;;;5.63;;
4166;SDS011;2097;51.104;7.150;2022-08-19T13:18:59;62.72;;;4.75;;
4166;SDS011;2097;51.104;7.150;2022-08-19T13:21:28;63.50;;;4.80;;
4166;SDS011;2097;51.104;7.150;2022-08-19T13:23:55;62.40;;;5.03;;
4166;SDS011;2097;51.104;7.150;2022-08-19T13:26:23;64.07;;;7.97;;
4166;SDS011;2097;51.104;7.150;2022-08-19T13:28:50;63.08;;;6.20;;
4166;SDS011;2097;51.104;7.150;2022-08-19T13:31:35;63.78;;;5.75;;
4166;SDS011;2097;51.104;7.150;2022-08-19T13:34:26;63.40;;;4.80;;
4166;SDS011;2097;51.104;7.150;2022-08-19T13:36:55;62.53;;;4.82;;
4166;SDS011;2097;51.104;7.150;2022-08-19T13:39:22;62.28;;;4.82;;
4166;SDS011;2097;51.104;7.150;2022-08-19T13:41:50;62.20;;;4.30;;
4166;SDS011;2097;51.104;7.150;2022-08-19T13:44:17;62.42;;;4.80;;
4166;SDS011;2097;51.104;7.150;2022-08-19T13:46:44;62.13;;;4.35;;
4166;SDS011;2097;51.104;7.150;2022-08-19T13:49:11;62.72;;;5.07;;
4166;SDS011;2097;51.104;7.150;2022-08-19T13:51:41;62.63;;;5.00;;
4166;SDS011;2097;51.104;7.150;2022-08-19T13:54:09;62.47;;;5.20;;
4166;SDS011;2097;51.104;7.150;2022-08-19T13:56:40;62.63;;;5.28;;
4166;SDS011;2097;51.104;7.150;2022-08-19T13:59:08;62.85;;;4.95;;
4166;SDS011;2097;51.104;7.150;2022-08-19T14:01:34;62.30;;;4.93;;
4166;SDS011;2097;51.104;7.150;2022-08-19T14:04:01;62.25;;;4.38;;
4166;SDS011;2097;51.104;7.150;2022-08-19T14:06:29;63.80;;;5.50;;
4166;SDS011;2097;51.104;7.150;2022-08-19T14:08:57;62.63;;;4.88;;
4166;SDS011;2097;51.104;7.150;2022-08-19T14:11:23;61.72;;;4.53;;
4166;SDS011;2097;51.104;7.150;2022-08-19T14:13:51;62.17;;;4.70;;
4166;SDS011;2097;51.104;7.150;2022-08-19T14:16:17;62.90;;;6.28;;
4166;SDS011;2097;51.104;7.150;2022-08-19T14:18:44;63.22;;;5.78;;
4166;SDS011;2097;51.104;7.150;2022-08-19T14:21:14;63.35;;;5.75;;
4166;SDS011;2097;51.104;7.150;2022-08-19T14:23:42;63.55;;;6.30;;
4166;SDS011;2097;51.104;7.150;2022-08-19T14:26:11;63.35;;;6.25;;
4166;SDS011;2097;51.104;7.150;2022-08-19T14:28:40;63.30;;;5.90;;
4166;SDS011;2097;51.104;7.150;2022-08-19T14:31:08;62.72;;;5.85;;
4166;SDS011;2097;51.104;7.150;2022-08-19T14:33:35;63.05;;;5.53;;
4166;SDS011;2097;51.104;7.150;2022-08-19T14:36:02;63.42;;;5.88;;
4166;SDS011;2097;51.104;7.150;2022-08-19T14:38:30;62.42;;;4.75;;
4166;SDS011;2097;51.104;7.150;2022-08-19T14:41:05;62.53;;;5.00;;
4166;SDS011;2097;51.104;7.150;2022-08-19T14:43:35;63.78;;;6.85;;
4166;SDS011;2097;51.104;7.150;2022-08-19T14:46:01;63.80;;;6.82;;
4166;SDS011;2097;51.104;7.150;2022-08-19T14:48:28;63.35;;;5.80;;
4166;SDS011;2097;51.104;7.150;2022-08-19T14:50:56;63.25;;;5.15;;
4166;SDS011;2097;51.104;7.150;2022-08-19T14:53:23;62.88;;;5.38;;
4166;SDS011;2097;51.104;7.150;2022-08-19T14:55:50;62.80;;;5.57;;
4166;SDS011;2097;51.104;7.150;2022-08-19T14:58:17;63.13;;;5.28;;
4166;SDS011;2097;51.104;7.150;2022-08-19T15:00:46;63.90;;;6.60;;
4166;SDS011;2097;51.104;7.150;2022-08-19T15:03:13;63.65;;;6.15;;
4166;SDS011;2097;51.104;7.150;2022-08-19T15:05:43;64.18;;;5.50;;
4166;SDS011;2097;51.104;7.150;2022-08-19T15:08:10;63.50;;;5.72;;
4166;SDS011;2097;51.104;7.150;2022-08-19T15:10:37;63.00;;;5.22;;